sensor_id;sensor_type;location;lat;lon;timestamp;temperature;humidity
13850;DHT22;6995;52.618;13.488;2022-10-16T00:00:45;15.30;1.00
13850;DHT22;6995;52.618;13.488;2022-10-16T00:03:11;15.30;1.00
13850;DHT22;6995;52.618;13.488;2022-10-16T00:05:42;15.20;1.00
13850;DHT22;6995;52.618;13.488;2022-10-16T00:08:09;15.20;1.00
13850;DHT22;6995;52.618;13.488;2022-10-16T00:10:35;15.20;1.00
13850;DHT22;6995;52.618;13.488;2022-10-16T00:13:01;15.30;1.00
13850;DHT22;6995;52.618;13.488;2022-10-16T00:15:27;15.40;1.00
13850;DHT22;6995;52.618;13.488;2022-10-16T00:17:53;15.50;1.00
13850;DHT22;6995;52.618;13.488;2022-10-16T00:20:18;15.50;1.00
13850;DHT22;6995;52.618;13.488;2022-10-16T00:22:44;15.60;1.00
13850;DHT22;6995;52.618;13.488;2022-10-16T00:25:09;15.60;1.00
13850;DHT22;6995;52.618;13.488;2022-10-16T00:27:35;15.70;1.00
13850;DHT22;6995;52.618;13.488;2022-10-16T00:30:01;15.70;1.00
13850;DHT22;6995;52.618;13.488;2022-10-16T00:32:26;15.70;1.00
13850;DHT22;6995;52.618;13.488;2022-10-16T00:34:52;15.70;1.00
13850;DHT22;6995;52.618;13.488;2022-10-16T00:37:20;15.70;1.00
13850;DHT22;6995;52.618;13.488;2022-10-16T00:39:46;15.70;1.00
13850;DHT22;6995;52.618;13.488;2022-10-16T00:42:16;15.70;1.00
13850;DHT22;6995;52.618;13.488;2022-10-16T00:47:21;15.80;1.00
13850;DHT22;6995;52.618;13.488;2022-10-16T00:49:50;15.80;1.00
13850;DHT22;6995;52.618;13.488;2022-10-16T00:52:17;15.80;1.00
13850;DHT22;6995;52.618;13.488;2022-10-16T00:54:43;15.70;1.00
13850;DHT22;6995;52.618;13.488;2022-10-16T00:57:10;15.70;1.00
13850;DHT22;6995;52.618;13.488;2022-10-16T00:59:40;15.70;1.00
13850;DHT22;6995;52.618;13.488;2022-10-16T01:02:12;15.70;1.00
13850;DHT22;6995;52.618;13.488;2022-10-16T01:04:47;15.80;1.00
13850;DHT22;6995;52.618;13.488;2022-10-16T01:10:28;15.90;1.00
13850;DHT22;6995;52.618;13.488;2022-10-16T01:15:47;16.00;1.00
13850;DHT22;6995;52.618;13.488;2022-10-16T01:18:42;16.00;1.00
13850;DHT22;6995;52.618;13.488;2022-10-16T01:21:14;16.10;1.00
13850;DHT22;6995;52.618;13.488;2022-10-16T01:29:33;16.00;1.00
13850;DHT22;6995;52.618;13.488;2022-10-16T01:32:05;16.00;1.00
13850;DHT22;6995;52.618;13.488;2022-10-16T01:34:45;16.00;1.00
13850;DHT22;6995;52.618;13.488;2022-10-16T01:37:16;16.00;1.00
13850;DHT22;6995;52.618;13.488;2022-10-16T01:39:47;16.00;1.00
13850;DHT22;6995;52.618;13.488;2022-10-16T01:42:22;16.10;1.00
13850;DHT22;6995;52.618;13.488;2022-10-16T01:44:51;16.00;1.00
13850;DHT22;6995;52.618;13.488;2022-10-16T01:47:19;16.10;1.00
13850;DHT22;6995;52.618;13.488;2022-10-16T01:49:47;16.00;1.00
13850;DHT22;6995;52.618;13.488;2022-10-16T01:52:17;16.10;1.00
13850;DHT22;6995;52.618;13.488;2022-10-16T01:54:46;16.00;1.00
13850;DHT22;6995;52.618;13.488;2022-10-16T01:57:14;16.10;1.00
13850;DHT22;6995;52.618;13.488;2022-10-16T01:59:47;16.10;1.00
13850;DHT22;6995;52.618;13.488;2022-10-16T02:02:15;16.00;1.00
13850;DHT22;6995;52.618;13.488;2022-10-16T02:04:49;16.00;1.00
13850;DHT22;6995;52.618;13.488;2022-10-16T02:07:18;16.00;1.00
13850;DHT22;6995;52.618;13.488;2022-10-16T02:09:44;16.00;1.00
13850;DHT22;6995;52.618;13.488;2022-10-16T02:12:24;16.00;1.00
13850;DHT22;6995;52.618;13.488;2022-10-16T02:14:51;16.00;1.00
13850;DHT22;6995;52.618;13.488;2022-10-16T02:17:18;16.10;1.00
13850;DHT22;6995;52.618;13.488;2022-10-16T02:19:45;16.10;1.00
13850;DHT22;6995;52.618;13.488;2022-10-16T02:22:24;16.10;1.00
13850;DHT22;6995;52.618;13.488;2022-10-16T02:25:03;16.10;1.00
13850;DHT22;6995;52.618;13.488;2022-10-16T02:27:34;16.10;1.00
13850;DHT22;6995;52.618;13.488;2022-10-16T02:30:19;16.10;1.00
13850;DHT22;6995;52.618;13.488;2022-10-16T02:32:47;16.10;1.00
13850;DHT22;6995;52.618;13.488;2022-10-16T02:35:15;16.10;1.00
13850;DHT22;6995;52.618;13.488;2022-10-16T02:37:42;16.10;1.00
13850;DHT22;6995;52.618;13.488;2022-10-16T02:40:09;16.10;1.00
13850;DHT22;6995;52.618;13.488;2022-10-16T02:42:37;16.10;1.00
13850;DHT22;6995;52.618;13.488;2022-10-16T02:45:04;16.10;1.00
13850;DHT22;6995;52.618;13.488;2022-10-16T02:47:30;16.10;1.00
13850;DHT22;6995;52.618;13.488;2022-10-16T02:49:56;16.10;1.00
13850;DHT22;6995;52.618;13.488;2022-10-16T02:52:22;16.10;1.00
13850;DHT22;6995;52.618;13.488;2022-10-16T02:54:47;16.10;1.00
13850;DHT22;6995;52.618;13.488;2022-10-16T02:57:13;16.10;1.00
13850;DHT22;6995;52.618;13.488;2022-10-16T02:59:39;16.10;1.00
13850;DHT22;6995;52.618;13.488;2022-10-16T03:02:04;16.10;1.00
13850;DHT22;6995;52.618;13.488;2022-10-16T03:04:30;16.10;1.00
13850;DHT22;6995;52.618;13.488;2022-10-16T03:06:55;16.10;1.00
13850;DHT22;6995;52.618;13.488;2022-10-16T03:09:21;16.00;1.00
13850;DHT22;6995;52.618;13.488;2022-10-16T03:11:47;16.00;1.00
13850;DHT22;6995;52.618;13.488;2022-10-16T03:14:12;16.00;1.00
13850;DHT22;6995;52.618;13.488;2022-10-16T03:16:38;15.90;1.00
13850;DHT22;6995;52.618;13.488;2022-10-16T03:19:04;15.90;1.00
13850;DHT22;6995;52.618;13.488;2022-10-16T03:21:29;15.80;1.00
13850;DHT22;6995;52.618;13.488;2022-10-16T03:23:55;15.80;1.00
13850;DHT22;6995;52.618;13.488;2022-10-16T03:26:21;15.70;1.00
13850;DHT22;6995;52.618;13.488;2022-10-16T03:28:46;15.70;1.00
13850;DHT22;6995;52.618;13.488;2022-10-16T03:31:12;15.70;1.00
13850;DHT22;6995;52.618;13.488;2022-10-16T03:33:38;15.60;1.00
13850;DHT22;6995;52.618;13.488;2022-10-16T03:36:03;15.60;1.00
13850;DHT22;6995;52.618;13.488;2022-10-16T03:38:29;15.60;1.00
13850;DHT22;6995;52.618;13.488;2022-10-16T03:40:55;15.50;1.00
13850;DHT22;6995;52.618;13.488;2022-10-16T03:43:20;15.50;1.00
13850;DHT22;6995;52.618;13.488;2022-10-16T03:45:46;15.40;1.00
13850;DHT22;6995;52.618;13.488;2022-10-16T03:48:12;15.40;1.00
13850;DHT22;6995;52.618;13.488;2022-10-16T03:50:37;15.40;1.00
13850;DHT22;6995;52.618;13.488;2022-10-16T03:53:03;15.30;1.00
13850;DHT22;6995;52.618;13.488;2022-10-16T03:55:29;15.30;1.00
13850;DHT22;6995;52.618;13.488;2022-10-16T03:57:54;15.30;1.00
13850;DHT22;6995;52.618;13.488;2022-10-16T04:00:20;15.20;1.00
13850;DHT22;6995;52.618;13.488;2022-10-16T04:02:46;15.20;1.00
13850;DHT22;6995;52.618;13.488;2022-10-16T04:05:11;15.20;1.00
13850;DHT22;6995;52.618;13.488;2022-10-16T04:07:37;15.20;1.00
13850;DHT22;6995;52.618;13.488;2022-10-16T04:10:04;15.20;1.00
13850;DHT22;6995;52.618;13.488;2022-10-16T04:12:29;15.30;1.00
13850;DHT22;6995;52.618;13.488;2022-10-16T04:14:55;15.20;1.00
13850;DHT22;6995;52.618;13.488;2022-10-16T04:17:21;15.20;1.00
13850;DHT22;6995;52.618;13.488;2022-10-16T04:19:46;15.20;1.00
13850;DHT22;6995;52.618;13.488;2022-10-16T04:22:13;15.20;1.00
13850;DHT22;6995;52.618;13.488;2022-10-16T04:24:39;15.20;1.00
13850;DHT22;6995;52.618;13.488;2022-10-16T04:27:04;15.20;1.00
13850;DHT22;6995;52.618;13.488;2022-10-16T04:29:30;15.20;1.00
13850;DHT22;6995;52.618;13.488;2022-10-16T04:31:55;15.10;1.00
13850;DHT22;6995;52.618;13.488;2022-10-16T04:34:21;15.00;1.00
13850;DHT22;6995;52.618;13.488;2022-10-16T04:36:48;15.00;1.00
13850;DHT22;6995;52.618;13.488;2022-10-16T04:39:14;15.00;1.00
13850;DHT22;6995;52.618;13.488;2022-10-16T04:41:40;15.00;1.00
13850;DHT22;6995;52.618;13.488;2022-10-16T04:44:06;15.00;1.00
13850;DHT22;6995;52.618;13.488;2022-10-16T04:46:32;14.90;1.00
13850;DHT22;6995;52.618;13.488;2022-10-16T04:48:57;14.90;1.00
13850;DHT22;6995;52.618;13.488;2022-10-16T04:51:23;14.90;1.00
13850;DHT22;6995;52.618;13.488;2022-10-16T04:53:49;15.00;1.00
13850;DHT22;6995;52.618;13.488;2022-10-16T04:56:14;14.90;1.00
13850;DHT22;6995;52.618;13.488;2022-10-16T04:58:40;14.90;1.00
13850;DHT22;6995;52.618;13.488;2022-10-16T05:01:06;14.80;1.00
13850;DHT22;6995;52.618;13.488;2022-10-16T05:03:32;14.80;1.00
13850;DHT22;6995;52.618;13.488;2022-10-16T05:05:58;14.80;1.00
13850;DHT22;6995;52.618;13.488;2022-10-16T05:08:23;14.80;1.00
13850;DHT22;6995;52.618;13.488;2022-10-16T05:10:49;14.80;1.00
13850;DHT22;6995;52.618;13.488;2022-10-16T05:13:14;14.80;1.00
13850;DHT22;6995;52.618;13.488;2022-10-16T05:15:40;14.80;1.00
13850;DHT22;6995;52.618;13.488;2022-10-16T05:18:06;14.70;1.00
13850;DHT22;6995;52.618;13.488;2022-10-16T05:20:32;14.70;1.00
13850;DHT22;6995;52.618;13.488;2022-10-16T05:22:57;14.70;1.00
13850;DHT22;6995;52.618;13.488;2022-10-16T05:25:23;14.60;1.00
13850;DHT22;6995;52.618;13.488;2022-10-16T05:27:49;14.50;1.00
13850;DHT22;6995;52.618;13.488;2022-10-16T05:30:16;14.50;1.00
13850;DHT22;6995;52.618;13.488;2022-10-16T05:32:46;14.40;1.00
13850;DHT22;6995;52.618;13.488;2022-10-16T05:35:12;14.50;1.00
13850;DHT22;6995;52.618;13.488;2022-10-16T05:37:38;14.50;1.00
13850;DHT22;6995;52.618;13.488;2022-10-16T05:40:04;14.50;1.00
13850;DHT22;6995;52.618;13.488;2022-10-16T05:42:30;14.50;1.00
13850;DHT22;6995;52.618;13.488;2022-10-16T05:44:56;14.60;1.00
13850;DHT22;6995;52.618;13.488;2022-10-16T05:47:21;14.60;1.00
13850;DHT22;6995;52.618;13.488;2022-10-16T05:49:47;14.70;1.00
13850;DHT22;6995;52.618;13.488;2022-10-16T05:52:13;14.70;1.00
13850;DHT22;6995;52.618;13.488;2022-10-16T05:54:38;14.80;1.00
13850;DHT22;6995;52.618;13.488;2022-10-16T05:57:04;15.00;1.00
13850;DHT22;6995;52.618;13.488;2022-10-16T05:59:31;15.10;1.00
13850;DHT22;6995;52.618;13.488;2022-10-16T06:01:57;15.10;1.00
13850;DHT22;6995;52.618;13.488;2022-10-16T06:04:23;15.00;1.00
13850;DHT22;6995;52.618;13.488;2022-10-16T06:06:48;15.10;1.00
13850;DHT22;6995;52.618;13.488;2022-10-16T06:09:14;15.10;1.00
13850;DHT22;6995;52.618;13.488;2022-10-16T06:11:39;15.20;1.00
13850;DHT22;6995;52.618;13.488;2022-10-16T06:14:05;15.20;1.00
13850;DHT22;6995;52.618;13.488;2022-10-16T06:16:35;15.20;1.00
13850;DHT22;6995;52.618;13.488;2022-10-16T06:19:02;15.30;1.00
13850;DHT22;6995;52.618;13.488;2022-10-16T06:21:31;15.40;1.00
13850;DHT22;6995;52.618;13.488;2022-10-16T06:23:57;15.50;1.00
13850;DHT22;6995;52.618;13.488;2022-10-16T06:26:25;15.60;1.00
13850;DHT22;6995;52.618;13.488;2022-10-16T06:28:53;15.60;1.00
13850;DHT22;6995;52.618;13.488;2022-10-16T06:31:19;15.60;1.00
13850;DHT22;6995;52.618;13.488;2022-10-16T06:33:44;15.60;1.00
13850;DHT22;6995;52.618;13.488;2022-10-16T06:36:14;15.60;1.00
13850;DHT22;6995;52.618;13.488;2022-10-16T06:38:41;15.60;1.00
13850;DHT22;6995;52.618;13.488;2022-10-16T06:41:09;15.70;1.00
13850;DHT22;6995;52.618;13.488;2022-10-16T06:43:35;15.70;1.00
13850;DHT22;6995;52.618;13.488;2022-10-16T06:46:01;15.80;1.00
13850;DHT22;6995;52.618;13.488;2022-10-16T06:48:27;15.90;1.00
13850;DHT22;6995;52.618;13.488;2022-10-16T06:51:07;15.90;1.00
13850;DHT22;6995;52.618;13.488;2022-10-16T06:53:35;15.90;1.00
13850;DHT22;6995;52.618;13.488;2022-10-16T06:56:19;16.00;1.00
13850;DHT22;6995;52.618;13.488;2022-10-16T06:58:46;16.00;1.00
13850;DHT22;6995;52.618;13.488;2022-10-16T07:01:12;16.10;1.00
13850;DHT22;6995;52.618;13.488;2022-10-16T07:03:40;16.20;1.00
13850;DHT22;6995;52.618;13.488;2022-10-16T07:06:07;16.30;1.00
13850;DHT22;6995;52.618;13.488;2022-10-16T07:08:38;16.50;1.00
13850;DHT22;6995;52.618;13.488;2022-10-16T07:11:06;16.40;1.00
13850;DHT22;6995;52.618;13.488;2022-10-16T07:13:36;16.40;1.00
13850;DHT22;6995;52.618;13.488;2022-10-16T07:16:11;16.40;1.00
13850;DHT22;6995;52.618;13.488;2022-10-16T07:18:37;16.40;1.00
13850;DHT22;6995;52.618;13.488;2022-10-16T07:21:12;16.50;1.00
13850;DHT22;6995;52.618;13.488;2022-10-16T07:23:39;16.40;1.00
13850;DHT22;6995;52.618;13.488;2022-10-16T07:26:05;16.30;1.00
13850;DHT22;6995;52.618;13.488;2022-10-16T07:28:32;16.40;1.00
13850;DHT22;6995;52.618;13.488;2022-10-16T07:31:09;16.40;1.00
13850;DHT22;6995;52.618;13.488;2022-10-16T07:33:39;16.50;1.00
13850;DHT22;6995;52.618;13.488;2022-10-16T07:36:07;16.80;1.00
13850;DHT22;6995;52.618;13.488;2022-10-16T07:38:32;16.80;99.90
13850;DHT22;6995;52.618;13.488;2022-10-16T07:41:04;16.90;99.90
13850;DHT22;6995;52.618;13.488;2022-10-16T07:43:30;17.00;99.90
13850;DHT22;6995;52.618;13.488;2022-10-16T07:45:56;17.10;99.90
13850;DHT22;6995;52.618;13.488;2022-10-16T07:48:23;17.20;99.90
13850;DHT22;6995;52.618;13.488;2022-10-16T07:50:49;17.30;99.90
13850;DHT22;6995;52.618;13.488;2022-10-16T07:53:15;17.40;99.90
13850;DHT22;6995;52.618;13.488;2022-10-16T07:55:41;17.50;99.90
13850;DHT22;6995;52.618;13.488;2022-10-16T07:58:08;17.60;99.90
13850;DHT22;6995;52.618;13.488;2022-10-16T08:00:35;17.60;99.90
13850;DHT22;6995;52.618;13.488;2022-10-16T08:03:01;17.60;99.90
13850;DHT22;6995;52.618;13.488;2022-10-16T08:05:31;17.60;99.90
13850;DHT22;6995;52.618;13.488;2022-10-16T08:07:57;17.50;99.90
13850;DHT22;6995;52.618;13.488;2022-10-16T08:10:25;17.40;99.90
13850;DHT22;6995;52.618;13.488;2022-10-16T08:12:51;17.50;99.90
13850;DHT22;6995;52.618;13.488;2022-10-16T08:15:17;17.40;99.90
13850;DHT22;6995;52.618;13.488;2022-10-16T08:17:43;17.40;99.90
13850;DHT22;6995;52.618;13.488;2022-10-16T08:20:10;17.40;99.90
13850;DHT22;6995;52.618;13.488;2022-10-16T08:22:36;17.40;99.90
13850;DHT22;6995;52.618;13.488;2022-10-16T08:25:02;17.50;99.90
13850;DHT22;6995;52.618;13.488;2022-10-16T08:27:32;17.60;99.90
13850;DHT22;6995;52.618;13.488;2022-10-16T08:29:57;17.60;99.90
13850;DHT22;6995;52.618;13.488;2022-10-16T08:32:23;17.60;99.90
13850;DHT22;6995;52.618;13.488;2022-10-16T08:34:49;17.50;99.90
13850;DHT22;6995;52.618;13.488;2022-10-16T08:37:14;17.60;99.90
13850;DHT22;6995;52.618;13.488;2022-10-16T08:39:40;17.60;99.90
13850;DHT22;6995;52.618;13.488;2022-10-16T08:50:13;18.20;99.90
13850;DHT22;6995;52.618;13.488;2022-10-16T08:52:41;18.30;99.90
13850;DHT22;6995;52.618;13.488;2022-10-16T08:55:29;18.40;99.90
13850;DHT22;6995;52.618;13.488;2022-10-16T08:57:56;18.40;99.90
13850;DHT22;6995;52.618;13.488;2022-10-16T09:00:21;18.40;99.90
13850;DHT22;6995;52.618;13.488;2022-10-16T09:04:26;18.40;99.90
13850;DHT22;6995;52.618;13.488;2022-10-16T09:11:45;18.70;99.90
13850;DHT22;6995;52.618;13.488;2022-10-16T09:17:24;18.70;99.90
13850;DHT22;6995;52.618;13.488;2022-10-16T09:22:41;18.50;99.90
13850;DHT22;6995;52.618;13.488;2022-10-16T09:25:12;18.70;99.90
13850;DHT22;6995;52.618;13.488;2022-10-16T09:27:39;18.70;99.90
13850;DHT22;6995;52.618;13.488;2022-10-16T09:30:13;18.80;99.90
13850;DHT22;6995;52.618;13.488;2022-10-16T09:32:41;18.90;99.90
13850;DHT22;6995;52.618;13.488;2022-10-16T09:35:15;18.80;99.90
13850;DHT22;6995;52.618;13.488;2022-10-16T09:37:44;18.30;99.90
13850;DHT22;6995;52.618;13.488;2022-10-16T09:40:34;18.40;99.90
13850;DHT22;6995;52.618;13.488;2022-10-16T09:43:16;18.30;99.90
13850;DHT22;6995;52.618;13.488;2022-10-16T09:46:03;18.50;99.90
13850;DHT22;6995;52.618;13.488;2022-10-16T09:48:48;18.40;99.90
13850;DHT22;6995;52.618;13.488;2022-10-16T09:53:59;18.50;99.90
13850;DHT22;6995;52.618;13.488;2022-10-16T09:56:31;18.50;99.90
13850;DHT22;6995;52.618;13.488;2022-10-16T09:59:00;18.30;99.90
13850;DHT22;6995;52.618;13.488;2022-10-16T10:01:35;18.50;99.90
13850;DHT22;6995;52.618;13.488;2022-10-16T10:04:03;18.70;99.90
13850;DHT22;6995;52.618;13.488;2022-10-16T10:06:34;19.00;99.90
13850;DHT22;6995;52.618;13.488;2022-10-16T10:11:54;19.70;99.90
13850;DHT22;6995;52.618;13.488;2022-10-16T10:14:31;19.80;99.90
13850;DHT22;6995;52.618;13.488;2022-10-16T10:17:23;19.60;99.90
13850;DHT22;6995;52.618;13.488;2022-10-16T10:19:55;19.40;99.90
13850;DHT22;6995;52.618;13.488;2022-10-16T10:22:44;19.40;99.90
13850;DHT22;6995;52.618;13.488;2022-10-16T10:30:22;19.10;99.90
13850;DHT22;6995;52.618;13.488;2022-10-16T10:36:05;19.30;99.90
13850;DHT22;6995;52.618;13.488;2022-10-16T10:53:15;19.60;99.90
13850;DHT22;6995;52.618;13.488;2022-10-16T10:55:56;20.00;99.90
13850;DHT22;6995;52.618;13.488;2022-10-16T11:01:04;20.20;99.90
13850;DHT22;6995;52.618;13.488;2022-10-16T11:06:11;20.10;99.90
13850;DHT22;6995;52.618;13.488;2022-10-16T11:09:00;20.10;99.90
13850;DHT22;6995;52.618;13.488;2022-10-16T11:11:41;19.90;99.90
13850;DHT22;6995;52.618;13.488;2022-10-16T11:16:45;19.80;99.90
13850;DHT22;6995;52.618;13.488;2022-10-16T11:21:56;19.90;99.90
13850;DHT22;6995;52.618;13.488;2022-10-16T11:27:15;19.80;99.90
13850;DHT22;6995;52.618;13.488;2022-10-16T11:30:02;19.70;99.90
13850;DHT22;6995;52.618;13.488;2022-10-16T11:32:33;19.70;99.90
13850;DHT22;6995;52.618;13.488;2022-10-16T11:35:17;19.70;99.90
13850;DHT22;6995;52.618;13.488;2022-10-16T11:37:46;19.60;99.90
13850;DHT22;6995;52.618;13.488;2022-10-16T11:40:33;19.50;99.90
13850;DHT22;6995;52.618;13.488;2022-10-16T11:43:22;19.30;99.90
13850;DHT22;6995;52.618;13.488;2022-10-16T11:45:54;19.60;99.90
13850;DHT22;6995;52.618;13.488;2022-10-16T11:48:33;19.60;99.90
13850;DHT22;6995;52.618;13.488;2022-10-16T11:51:31;19.90;99.90
13850;DHT22;6995;52.618;13.488;2022-10-16T11:53:59;20.00;99.90
13850;DHT22;6995;52.618;13.488;2022-10-16T11:56:36;20.30;99.90
13850;DHT22;6995;52.618;13.488;2022-10-16T12:01:42;20.70;99.90
13850;DHT22;6995;52.618;13.488;2022-10-16T12:09:25;20.30;99.90
13850;DHT22;6995;52.618;13.488;2022-10-16T12:11:51;20.20;99.90
13850;DHT22;6995;52.618;13.488;2022-10-16T12:16:57;20.70;99.90
13850;DHT22;6995;52.618;13.488;2022-10-16T12:19:27;20.80;99.90
13850;DHT22;6995;52.618;13.488;2022-10-16T12:21:56;21.10;99.90
13850;DHT22;6995;52.618;13.488;2022-10-16T12:24:38;21.10;99.90
13850;DHT22;6995;52.618;13.488;2022-10-16T12:27:06;21.30;99.90
13850;DHT22;6995;52.618;13.488;2022-10-16T12:29:40;21.60;99.90
13850;DHT22;6995;52.618;13.488;2022-10-16T12:32:37;21.20;99.90
13850;DHT22;6995;52.618;13.488;2022-10-16T12:35:05;21.10;99.90
13850;DHT22;6995;52.618;13.488;2022-10-16T12:37:36;21.40;99.90
13850;DHT22;6995;52.618;13.488;2022-10-16T12:40:15;21.90;99.90
13850;DHT22;6995;52.618;13.488;2022-10-16T12:42:42;22.50;99.90
13850;DHT22;6995;52.618;13.488;2022-10-16T12:45:34;22.90;99.90
13850;DHT22;6995;52.618;13.488;2022-10-16T12:48:01;22.60;99.90
13850;DHT22;6995;52.618;13.488;2022-10-16T12:50:32;23.20;99.90
13850;DHT22;6995;52.618;13.488;2022-10-16T12:52:59;23.00;99.90
13850;DHT22;6995;52.618;13.488;2022-10-16T12:55:26;23.20;99.90
13850;DHT22;6995;52.618;13.488;2022-10-16T13:00:35;23.90;99.90
13850;DHT22;6995;52.618;13.488;2022-10-16T13:03:25;23.90;99.90
13850;DHT22;6995;52.618;13.488;2022-10-16T13:19:21;23.50;99.90
13850;DHT22;6995;52.618;13.488;2022-10-16T13:24:53;23.20;99.90
13850;DHT22;6995;52.618;13.488;2022-10-16T13:33:30;24.10;99.90
13850;DHT22;6995;52.618;13.488;2022-10-16T13:35:57;24.40;99.90
13850;DHT22;6995;52.618;13.488;2022-10-16T13:38:24;23.70;99.90
13850;DHT22;6995;52.618;13.488;2022-10-16T13:41:02;23.90;99.90
13850;DHT22;6995;52.618;13.488;2022-10-16T13:46:00;23.90;99.90
13850;DHT22;6995;52.618;13.488;2022-10-16T13:48:26;23.70;99.90
13850;DHT22;6995;52.618;13.488;2022-10-16T13:53:30;24.50;99.90
13850;DHT22;6995;52.618;13.488;2022-10-16T13:55:56;24.70;99.90
13850;DHT22;6995;52.618;13.488;2022-10-16T13:58:22;23.90;99.90
13850;DHT22;6995;52.618;13.488;2022-10-16T14:00:58;23.50;99.90
13850;DHT22;6995;52.618;13.488;2022-10-16T14:03:26;23.40;99.90
13850;DHT22;6995;52.618;13.488;2022-10-16T14:05:57;23.80;99.90
13850;DHT22;6995;52.618;13.488;2022-10-16T14:08:25;23.60;99.90
13850;DHT22;6995;52.618;13.488;2022-10-16T14:10:53;23.70;99.90
13850;DHT22;6995;52.618;13.488;2022-10-16T14:13:47;23.50;99.90
13850;DHT22;6995;52.618;13.488;2022-10-16T14:16:22;24.10;99.90
13850;DHT22;6995;52.618;13.488;2022-10-16T14:19:00;24.00;99.90
13850;DHT22;6995;52.618;13.488;2022-10-16T14:21:28;23.70;99.90
13850;DHT22;6995;52.618;13.488;2022-10-16T14:23:54;23.90;99.90
13850;DHT22;6995;52.618;13.488;2022-10-16T14:26:23;23.90;99.90
13850;DHT22;6995;52.618;13.488;2022-10-16T14:36:55;23.60;99.90
13850;DHT22;6995;52.618;13.488;2022-10-16T14:39:22;23.20;99.90
13850;DHT22;6995;52.618;13.488;2022-10-16T14:41:50;22.90;99.90
13850;DHT22;6995;52.618;13.488;2022-10-16T14:44:18;22.20;99.90
13850;DHT22;6995;52.618;13.488;2022-10-16T14:46:44;22.10;99.90
13850;DHT22;6995;52.618;13.488;2022-10-16T14:51:41;21.60;99.90
13850;DHT22;6995;52.618;13.488;2022-10-16T14:54:12;21.40;99.90
13850;DHT22;6995;52.618;13.488;2022-10-16T14:56:43;21.00;99.90
13850;DHT22;6995;52.618;13.488;2022-10-16T14:59:27;20.80;99.90
13850;DHT22;6995;52.618;13.488;2022-10-16T15:01:53;20.60;99.90
13850;DHT22;6995;52.618;13.488;2022-10-16T15:04:19;20.50;99.90
13850;DHT22;6995;52.618;13.488;2022-10-16T15:06:45;20.40;99.90
13850;DHT22;6995;52.618;13.488;2022-10-16T15:09:11;20.30;99.90
13850;DHT22;6995;52.618;13.488;2022-10-16T15:11:37;20.30;99.90
13850;DHT22;6995;52.618;13.488;2022-10-16T15:14:03;20.30;99.90
13850;DHT22;6995;52.618;13.488;2022-10-16T15:16:29;20.30;99.90
13850;DHT22;6995;52.618;13.488;2022-10-16T15:18:55;20.20;99.90
13850;DHT22;6995;52.618;13.488;2022-10-16T15:21:28;20.20;99.90
13850;DHT22;6995;52.618;13.488;2022-10-16T15:23:54;20.10;99.90
13850;DHT22;6995;52.618;13.488;2022-10-16T15:26:20;20.00;99.90
13850;DHT22;6995;52.618;13.488;2022-10-16T15:28:45;19.90;99.90
13850;DHT22;6995;52.618;13.488;2022-10-16T15:31:11;19.90;99.90
13850;DHT22;6995;52.618;13.488;2022-10-16T15:33:37;19.80;99.90
13850;DHT22;6995;52.618;13.488;2022-10-16T15:36:04;19.60;99.90
13850;DHT22;6995;52.618;13.488;2022-10-16T15:38:30;19.50;99.90
13850;DHT22;6995;52.618;13.488;2022-10-16T15:40:56;19.40;99.90
13850;DHT22;6995;52.618;13.488;2022-10-16T15:43:22;19.30;99.90
13850;DHT22;6995;52.618;13.488;2022-10-16T15:46:02;19.20;99.90
13850;DHT22;6995;52.618;13.488;2022-10-16T15:48:29;19.10;99.90
13850;DHT22;6995;52.618;13.488;2022-10-16T15:50:55;19.10;99.90
13850;DHT22;6995;52.618;13.488;2022-10-16T15:53:20;19.00;99.90
13850;DHT22;6995;52.618;13.488;2022-10-16T15:55:46;18.90;99.90
13850;DHT22;6995;52.618;13.488;2022-10-16T15:58:12;18.90;99.90
13850;DHT22;6995;52.618;13.488;2022-10-16T16:00:37;18.80;99.90
13850;DHT22;6995;52.618;13.488;2022-10-16T16:03:04;18.60;99.90
13850;DHT22;6995;52.618;13.488;2022-10-16T16:05:30;18.50;99.90
13850;DHT22;6995;52.618;13.488;2022-10-16T16:07:56;18.40;99.90
13850;DHT22;6995;52.618;13.488;2022-10-16T16:10:22;18.30;99.90
13850;DHT22;6995;52.618;13.488;2022-10-16T16:12:49;18.20;99.90
13850;DHT22;6995;52.618;13.488;2022-10-16T16:15:21;18.00;99.90
13850;DHT22;6995;52.618;13.488;2022-10-16T16:17:47;17.80;99.90
13850;DHT22;6995;52.618;13.488;2022-10-16T16:20:13;17.70;99.90
13850;DHT22;6995;52.618;13.488;2022-10-16T16:22:39;17.50;99.90
13850;DHT22;6995;52.618;13.488;2022-10-16T16:25:05;17.40;99.90
13850;DHT22;6995;52.618;13.488;2022-10-16T16:27:31;17.30;99.90
13850;DHT22;6995;52.618;13.488;2022-10-16T16:29:59;17.10;99.90
13850;DHT22;6995;52.618;13.488;2022-10-16T16:32:25;17.00;99.90
13850;DHT22;6995;52.618;13.488;2022-10-16T16:34:50;16.80;99.90
13850;DHT22;6995;52.618;13.488;2022-10-16T16:37:16;16.70;99.90
13850;DHT22;6995;52.618;13.488;2022-10-16T16:39:42;16.50;99.90
13850;DHT22;6995;52.618;13.488;2022-10-16T16:42:08;16.30;99.90
13850;DHT22;6995;52.618;13.488;2022-10-16T16:44:35;16.20;99.90
13850;DHT22;6995;52.618;13.488;2022-10-16T16:47:05;16.10;99.90
13850;DHT22;6995;52.618;13.488;2022-10-16T16:49:31;15.90;99.90
13850;DHT22;6995;52.618;13.488;2022-10-16T16:51:57;15.80;99.90
13850;DHT22;6995;52.618;13.488;2022-10-16T16:54:23;15.80;99.90
13850;DHT22;6995;52.618;13.488;2022-10-16T16:56:49;15.70;99.90
13850;DHT22;6995;52.618;13.488;2022-10-16T16:59:17;15.70;99.90
13850;DHT22;6995;52.618;13.488;2022-10-16T17:01:43;15.70;99.90
13850;DHT22;6995;52.618;13.488;2022-10-16T17:04:09;15.50;99.90
13850;DHT22;6995;52.618;13.488;2022-10-16T17:06:36;15.50;99.90
13850;DHT22;6995;52.618;13.488;2022-10-16T17:09:03;15.40;99.90
13850;DHT22;6995;52.618;13.488;2022-10-16T17:11:30;15.40;99.90
13850;DHT22;6995;52.618;13.488;2022-10-16T17:13:57;15.30;99.90
13850;DHT22;6995;52.618;13.488;2022-10-16T17:16:26;15.30;99.90
13850;DHT22;6995;52.618;13.488;2022-10-16T17:18:52;15.20;99.90
13850;DHT22;6995;52.618;13.488;2022-10-16T17:21:18;15.20;99.90
13850;DHT22;6995;52.618;13.488;2022-10-16T17:23:44;15.10;99.90
13850;DHT22;6995;52.618;13.488;2022-10-16T17:26:14;14.90;99.90
13850;DHT22;6995;52.618;13.488;2022-10-16T17:28:41;14.80;99.90
13850;DHT22;6995;52.618;13.488;2022-10-16T17:31:12;14.80;99.90
13850;DHT22;6995;52.618;13.488;2022-10-16T17:33:38;14.70;99.90
13850;DHT22;6995;52.618;13.488;2022-10-16T17:36:05;14.60;99.90
13850;DHT22;6995;52.618;13.488;2022-10-16T17:38:30;14.50;99.90
13850;DHT22;6995;52.618;13.488;2022-10-16T17:40:56;14.40;99.90
13850;DHT22;6995;52.618;13.488;2022-10-16T17:43:22;14.30;99.90
13850;DHT22;6995;52.618;13.488;2022-10-16T17:45:47;14.20;99.90
13850;DHT22;6995;52.618;13.488;2022-10-16T17:48:13;14.10;99.90
13850;DHT22;6995;52.618;13.488;2022-10-16T17:50:40;14.10;99.90
13850;DHT22;6995;52.618;13.488;2022-10-16T17:53:06;14.00;99.90
13850;DHT22;6995;52.618;13.488;2022-10-16T17:55:37;14.00;99.90